Time;durP1;ratioP1;P1;durP2;ratioP2;P2;SDS_P1;SDS_P2;PMS_P1;PMS_P2;Temp;Humidity;BMP_temperature;BMP_pressure;BME280_temperature;BME280_humidity;BME280_pressure;Samples;Min_cycle;Max_cycle;Signal;HPM_P1;HPM_P2
2021/04/30 00:00:59;;;;;;;2.30;1.60;;;23.60;29.10;;;;;;5064562;28;20193;-43
2021/04/30 00:03:25;;;;;;;1.70;1.08;;;23.50;29.10;;;;;;5058169;28;20665;-41
2021/04/30 00:05:51;;;;;;;1.42;1.33;;;23.60;29.20;;;;;;5061111;28;20202;-46
2021/04/30 00:08:17;;;;;;;1.70;1.52;;;23.50;29.20;;;;;;5055012;28;20206;-53
2021/04/30 00:10:43;;;;;;;1.20;1.10;;;23.50;29.10;;;;;;5051999;28;20690;-35
2021/04/30 00:13:09;;;;;;;2.35;1.30;;;23.60;29.20;;;;;;5045440;28;20288;-47
2021/04/30 00:15:35;;;;;;;1.55;1.45;;;23.50;29.20;;;;;;5047815;28;20197;-39
2021/04/30 00:18:04;;;;;;;1.27;1.17;;;23.50;29.30;;;;;;5054923;28;20654;-34
2021/04/30 00:20:30;;;;;;;1.33;1.20;;;23.60;29.30;;;;;;5052496;28;20206;-48
2021/04/30 00:22:56;;;;;;;1.65;1.20;;;23.50;29.50;;;;;;5053462;28;20228;-52
2021/04/30 00:25:22;;;;;;;1.73;1.63;;;23.60;29.30;;;;;;5051283;28;20198;-32
2021/04/30 00:27:48;;;;;;;1.38;1.20;;;23.50;29.30;;;;;;5053063;28;20201;-49
2021/04/30 00:30:14;;;;;;;1.42;1.33;;;23.50;29.20;;;;;;5055417;28;20221;-36
2021/04/30 00:32:40;;;;;;;1.20;1.10;;;23.50;29.20;;;;;;5050475;28;20218;-39
2021/04/30 00:35:06;;;;;;;1.65;1.40;;;23.50;29.20;;;;;;5051816;28;20259;-41
2021/04/30 00:37:32;;;;;;;1.65;1.55;;;23.50;29.30;;;;;;5051419;28;20242;-33
2021/04/30 00:39:58;;;;;;;1.30;1.20;;;23.50;29.30;;;;;;5051435;28;20257;-47
2021/04/30 00:42:24;;;;;;;1.23;1.13;;;23.50;29.30;;;;;;5052865;28;20217;-38
2021/04/30 00:44:50;;;;;;;1.50;1.40;;;23.50;29.40;;;;;;5051885;28;20230;-37
2021/04/30 00:47:16;;;;;;;1.83;1.30;;;23.50;29.50;;;;;;5051639;28;20190;-33
2021/04/30 00:49:42;;;;;;;1.25;1.15;;;23.50;29.60;;;;;;5059665;28;20193;-34
2021/04/30 00:52:08;;;;;;;1.40;1.30;;;23.50;29.40;;;;;;5052363;28;20234;-48
2021/04/30 00:54:34;;;;;;;1.60;1.50;;;23.50;29.50;;;;;;5070080;28;20193;-41
2021/04/30 00:57:00;;;;;;;1.38;1.23;;;23.50;29.50;;;;;;5068624;28;20213;-51
2021/04/30 00:59:26;;;;;;;1.58;1.38;;;23.50;29.40;;;;;;5053508;28;20209;-42
2021/04/30 01:01:52;;;;;;;1.20;1.20;;;23.50;29.60;;;;;;5055368;28;20613;-40
2021/04/30 01:04:18;;;;;;;1.52;1.42;;;23.50;29.50;;;;;;5051873;28;20198;-52
2021/04/30 01:06:44;;;;;;;2.50;1.20;;;23.50;29.50;;;;;;5054418;28;20247;-33
2021/04/30 01:09:10;;;;;;;1.23;1.10;;;23.50;29.50;;;;;;5070524;28;20665;-47
2021/04/30 01:11:37;;;;;;;1.48;1.23;;;23.50;29.50;;;;;;5060623;28;20284;-53
2021/04/30 01:14:03;;;;;;;2.85;1.30;;;23.50;29.50;;;;;;5069064;28;20243;-35
2021/04/30 01:16:29;;;;;;;1.40;1.30;;;23.50;29.60;;;;;;5060219;28;20198;-46
2021/04/30 01:18:55;;;;;;;1.23;1.10;;;23.50;29.60;;;;;;5061038;28;20743;-42
2021/04/30 01:21:20;;;;;;;1.70;1.10;;;23.50;29.60;;;;;;5064338;28;20312;-37
2021/04/30 01:23:46;;;;;;;1.50;1.40;;;23.50;29.70;;;;;;5067910;28;20209;-53
2021/04/30 01:26:12;;;;;;;1.52;1.30;;;23.50;29.60;;;;;;5071088;28;20209;-34
2021/04/30 01:28:38;;;;;;;1.60;1.15;;;23.50;29.60;;;;;;5045441;28;20193;-48
2021/04/30 01:31:04;;;;;;;1.17;1.10;;;23.50;29.70;;;;;;5050089;28;20604;-43
2021/04/30 01:33:30;;;;;;;1.30;1.20;;;23.50;29.70;;;;;;5057670;28;20244;-40
2021/04/30 01:35:56;;;;;;;1.05;1.02;;;23.50;29.70;;;;;;5057984;28;20197;-39
2021/04/30 01:38:22;;;;;;;1.70;1.10;;;23.50;29.70;;;;;;5069226;28;20216;-38
2021/04/30 01:40:48;;;;;;;1.05;1.02;;;23.50;29.70;;;;;;5057857;28;20241;-39
2021/04/30 01:43:14;;;;;;;1.77;1.33;;;23.50;29.80;;;;;;5059021;28;20693;-42
2021/04/30 01:45:40;;;;;;;1.23;1.10;;;23.50;29.70;;;;;;5050734;28;20205;-54
2021/04/30 01:48:06;;;;;;;1.33;1.20;;;23.50;29.70;;;;;;5050783;28;20410;-47
2021/04/30 01:50:32;;;;;;;1.88;1.27;;;23.50;29.80;;;;;;5050616;28;20264;-45
2021/04/30 01:52:58;;;;;;;1.08;1.00;;;23.50;29.80;;;;;;5051062;28;20247;-46
2021/04/30 01:55:24;;;;;;;1.10;1.10;;;23.50;29.90;;;;;;5058006;28;20537;-38
2021/04/30 01:57:50;;;;;;;1.40;1.30;;;23.50;29.70;;;;;;5057279;28;20208;-40
2021/04/30 02:00:16;;;;;;;1.45;1.23;;;23.50;29.80;;;;;;5065969;28;20197;-53
2021/04/30 02:02:42;;;;;;;1.25;1.15;;;23.50;29.80;;;;;;5070049;28;20231;-34
2021/04/30 02:05:08;;;;;;;1.13;1.02;;;23.50;29.80;;;;;;5056351;28;20216;-51
2021/04/30 02:07:34;;;;;;;1.10;1.10;;;23.50;29.70;;;;;;5048016;28;20206;-41
2021/04/30 02:10:00;;;;;;;1.25;1.15;;;23.50;29.90;;;;;;5049206;28;20197;-53
2021/04/30 02:12:26;;;;;;;1.20;1.10;;;23.50;29.80;;;;;;5048865;28;20697;-53
2021/04/30 02:14:52;;;;;;;2.20;1.10;;;23.50;29.80;;;;;;5046611;28;20202;-40
2021/04/30 02:17:18;;;;;;;1.20;1.10;;;23.50;29.80;;;;;;5035860;28;20202;-39
2021/04/30 02:19:44;;;;;;;1.30;1.20;;;23.50;29.80;;;;;;5053176;28;20209;-51
2021/04/30 02:22:10;;;;;;;1.52;1.20;;;23.50;29.90;;;;;;5051847;28;20302;-48
2021/04/30 02:24:36;;;;;;;1.17;1.05;;;23.50;30.00;;;;;;5063232;28;20224;-52
2021/04/30 02:27:02;;;;;;;2.07;1.40;;;23.50;30.00;;;;;;5068232;28;20205;-51
2021/04/30 02:29:29;;;;;;;1.20;1.10;;;23.50;30.00;;;;;;5054020;28;20723;-54
2021/04/30 02:31:55;;;;;;;1.83;1.35;;;23.50;30.00;;;;;;5062488;28;20233;-43
2021/04/30 02:34:21;;;;;;;1.65;1.08;;;23.50;29.90;;;;;;5054758;28;20587;-43
2021/04/30 02:36:47;;;;;;;1.15;1.05;;;23.50;30.00;;;;;;5065462;28;20215;-43
2021/04/30 02:39:13;;;;;;;2.38;1.20;;;23.50;30.00;;;;;;5053410;28;20202;-43
2021/04/30 02:41:39;;;;;;;1.33;1.23;;;23.50;30.00;;;;;;5053220;28;20256;-43
2021/04/30 02:44:05;;;;;;;1.70;1.40;;;23.50;29.90;;;;;;5072657;28;20271;-43
2021/04/30 02:46:31;;;;;;;1.30;1.20;;;23.50;30.00;;;;;;5061270;28;20241;-43
2021/04/30 02:49:02;;;;;;;1.10;1.10;;;23.50;29.90;;;;;;5056434;28;20210;-43
2021/04/30 02:51:28;;;;;;;1.13;1.02;;;23.50;30.00;;;;;;5059759;28;20238;-41
2021/04/30 02:53:54;;;;;;;2.25;1.45;;;23.50;30.00;;;;;;5058936;28;20542;-41
2021/04/30 02:56:22;;;;;;;1.17;1.08;;;23.50;30.00;;;;;;5063156;28;20213;-41
2021/04/30 02:58:53;;;;;;;1.15;1.10;;;23.50;30.00;;;;;;5056969;28;20697;-40
2021/04/30 03:01:19;;;;;;;1.25;1.15;;;23.50;30.00;;;;;;5057843;28;20697;-41
2021/04/30 03:03:45;;;;;;;1.30;1.20;;;23.50;30.00;;;;;;5054060;28;20275;-40
2021/04/30 03:06:11;;;;;;;1.35;1.10;;;23.50;30.00;;;;;;5054534;28;20263;-41
2021/04/30 03:08:37;;;;;;;1.58;1.48;;;23.50;30.00;;;;;;5056515;28;20198;-40
2021/04/30 03:11:03;;;;;;;1.20;1.10;;;23.50;30.00;;;;;;5053367;28;20218;-41
2021/04/30 03:13:29;;;;;;;0.90;0.90;;;23.50;30.00;;;;;;5064619;28;20682;-40
2021/04/30 03:15:55;;;;;;;1.02;1.02;;;23.50;30.10;;;;;;5053834;28;20202;-40
2021/04/30 03:18:21;;;;;;;1.60;1.50;;;23.50;30.00;;;;;;5060357;28;20193;-41
2021/04/30 03:20:47;;;;;;;1.60;1.30;;;23.50;30.00;;;;;;5053091;28;20221;-41
2021/04/30 03:23:13;;;;;;;1.15;1.10;;;23.50;30.00;;;;;;5064452;28;20198;-41
2021/04/30 03:25:40;;;;;;;1.05;1.05;;;23.50;30.10;;;;;;5053318;28;20204;-41
2021/04/30 03:28:06;;;;;;;1.20;1.10;;;23.50;30.00;;;;;;5065863;28;20197;-40
2021/04/30 03:30:32;;;;;;;1.38;1.27;;;23.50;30.10;;;;;;5052957;28;20232;-40
2021/04/30 03:32:58;;;;;;;1.83;1.15;;;23.50;30.00;;;;;;5062190;28;20697;-40
2021/04/30 03:35:24;;;;;;;1.25;1.15;;;23.50;30.30;;;;;;5055698;28;20213;-40
2021/04/30 03:37:50;;;;;;;1.35;1.10;;;23.50;30.20;;;;;;5049774;28;20615;-40
2021/04/30 03:40:16;;;;;;;1.30;1.20;;;23.50;30.20;;;;;;5051168;28;20237;-41
2021/04/30 03:42:41;;;;;;;3.22;1.00;;;23.50;30.30;;;;;;5060877;28;20589;-40
2021/04/30 03:45:07;;;;;;;1.48;1.10;;;23.50;30.30;;;;;;5051392;28;20217;-41
2021/04/30 03:47:33;;;;;;;1.25;1.15;;;23.50;30.10;;;;;;5066463;28;20197;-43
2021/04/30 03:50:00;;;;;;;1.08;1.08;;;23.50;30.10;;;;;;5054422;28;20744;-41
2021/04/30 03:52:26;;;;;;;1.23;1.10;;;23.50;30.00;;;;;;5064148;28;20213;-41
2021/04/30 03:54:52;;;;;;;1.40;1.13;;;23.50;30.00;;;;;;5064152;28;20243;-40
2021/04/30 03:57:18;;;;;;;1.30;1.20;;;23.50;30.30;;;;;;5071927;28;20650;-48
2021/04/30 03:59:44;;;;;;;1.40;1.30;;;23.50;30.90;;;;;;5057404;28;20209;-46
2021/04/30 04:02:10;;;;;;;2.28;1.55;;;23.50;30.70;;;;;;5055394;28;20229;-47
2021/04/30 04:04:36;;;;;;;1.42;1.30;;;23.50;30.20;;;;;;5058018;28;20198;-42
2021/04/30 04:07:02;;;;;;;1.23;1.13;;;23.50;30.20;;;;;;5054087;28;20205;-45
2021/04/30 04:09:27;;;;;;;1.35;1.25;;;23.50;30.30;;;;;;5062694;28;20617;-49
2021/04/30 04:11:53;;;;;;;1.15;1.10;;;23.50;30.20;;;;;;5052280;28;20237;-49
2021/04/30 04:14:19;;;;;;;1.20;1.15;;;23.50;30.30;;;;;;5051615;28;20657;-46
2021/04/30 04:16:45;;;;;;;1.08;1.08;;;23.50;30.20;;;;;;5042718;28;20524;-47
2021/04/30 04:19:14;;;;;;;1.30;1.30;;;23.50;30.30;;;;;;5061831;28;20577;-46
2021/04/30 04:21:40;;;;;;;1.27;1.17;;;23.50;30.20;;;;;;5072404;28;20308;-38
2021/04/30 04:24:06;;;;;;;1.20;1.10;;;23.50;30.30;;;;;;5053943;28;20209;-42
2021/04/30 04:26:32;;;;;;;1.02;1.00;;;23.50;30.30;;;;;;5058958;28;20198;-47
2021/04/30 04:28:58;;;;;;;1.35;1.25;;;23.50;30.40;;;;;;5052869;28;20487;-48
2021/04/30 04:31:24;;;;;;;1.20;1.10;;;23.50;30.30;;;;;;5051979;28;20313;-42
2021/04/30 04:33:50;;;;;;;1.20;1.10;;;23.50;30.30;;;;;;5045945;28;20197;-35
2021/04/30 04:36:16;;;;;;;1.27;1.23;;;23.50;30.80;;;;;;5051324;28;20202;-35
2021/04/30 04:38:42;;;;;;;1.25;1.10;;;23.50;30.10;;;;;;5061578;28;20209;-42
2021/04/30 04:41:08;;;;;;;1.45;1.35;;;23.50;30.20;;;;;;5053782;28;20230;-46
2021/04/30 04:43:34;;;;;;;1.30;1.20;;;23.50;30.20;;;;;;5056494;28;20209;-43
2021/04/30 04:46:00;;;;;;;1.23;1.10;;;23.50;30.30;;;;;;5056607;28;20232;-42
2021/04/30 04:48:26;;;;;;;1.23;1.13;;;23.50;30.10;;;;;;5062703;28;20224;-44
2021/04/30 04:50:52;;;;;;;1.30;1.10;;;23.50;30.00;;;;;;5053474;28;20221;-35
2021/04/30 04:53:18;;;;;;;1.05;1.05;;;23.50;30.20;;;;;;5056944;28;20202;-44
2021/04/30 04:55:44;;;;;;;1.55;1.15;;;23.50;30.20;;;;;;5047670;28;20221;-47
2021/04/30 04:58:10;;;;;;;1.00;1.00;;;23.50;30.20;;;;;;5058831;28;20544;-43
2021/04/30 05:00:36;;;;;;;0.88;0.88;;;23.50;30.00;;;;;;5055003;28;20286;-47
2021/04/30 05:03:02;;;;;;;1.52;1.10;;;23.50;30.00;;;;;;5055521;28;20255;-40
2021/04/30 05:05:28;;;;;;;1.33;1.23;;;23.50;30.10;;;;;;5063846;28;20390;-40
2021/04/30 05:07:54;;;;;;;2.20;1.33;;;23.50;30.10;;;;;;5053720;28;20201;-44
2021/04/30 05:10:20;;;;;;;1.40;1.30;;;23.50;30.40;;;;;;5063550;28;20223;-34
2021/04/30 05:12:46;;;;;;;1.95;1.30;;;23.50;31.80;;;;;;5045610;28;20198;-35
2021/04/30 05:15:12;;;;;;;2.10;1.48;;;23.60;31.10;;;;;;5048061;28;20255;-37
2021/04/30 05:17:38;;;;;;;1.70;1.40;;;23.60;32.60;;;;;;5047818;28;20202;-36
2021/04/30 05:20:04;;;;;;;2.80;1.67;;;23.60;31.80;;;;;;5049473;28;20244;-34
2021/04/30 05:22:30;;;;;;;4.45;1.30;;;23.60;31.50;;;;;;5047982;28;20254;-43
2021/04/30 05:24:56;;;;;;;3.78;1.30;;;23.60;31.20;;;;;;5048623;28;20201;-53
2021/04/30 05:27:22;;;;;;;4.03;1.65;;;23.60;32.00;;;;;;5048895;28;20201;-41
2021/04/30 05:29:48;;;;;;;3.50;2.28;;;23.60;31.70;;;;;;5050076;28;20264;-40
2021/04/30 05:32:14;;;;;;;9.88;3.00;;;23.60;32.10;;;;;;5044051;28;20233;-32
2021/04/30 05:34:40;;;;;;;6.55;2.70;;;23.60;32.90;;;;;;5047422;28;20205;-47
2021/04/30 05:37:06;;;;;;;10.20;3.47;;;23.60;33.60;;;;;;5058440;28;20201;-46
2021/04/30 05:39:33;;;;;;;11.52;3.45;;;23.50;33.20;;;;;;5058016;28;20662;-32
2021/04/30 05:41:59;;;;;;;8.07;3.83;;;23.50;33.70;;;;;;5050653;28;20205;-46
2021/04/30 05:44:26;;;;;;;9.27;4.30;;;23.40;33.80;;;;;;5049960;28;20284;-51
2021/04/30 05:46:52;;;;;;;8.02;3.70;;;23.30;33.70;;;;;;5063453;28;20197;-42
2021/04/30 05:49:18;;;;;;;7.65;4.30;;;23.30;33.60;;;;;;5049922;28;20209;-43
2021/04/30 05:51:44;;;;;;;6.50;4.28;;;23.30;33.50;;;;;;5050222;28;20229;-47
2021/04/30 05:54:10;;;;;;;9.02;6.72;;;23.30;34.50;;;;;;5059246;28;20282;-50
2021/04/30 05:56:36;;;;;;;9.18;7.93;;;22.60;32.30;;;;;;5053153;28;20615;-46
2021/04/30 05:59:02;;;;;;;8.98;8.07;;;21.90;31.20;;;;;;5062454;28;20201;-45
2021/04/30 06:01:28;;;;;;;7.80;7.00;;;20.90;30.60;;;;;;5050740;28;20218;-50
2021/04/30 06:03:54;;;;;;;8.38;6.53;;;21.30;32.50;;;;;;5049683;28;20205;-38
2021/04/30 06:06:20;;;;;;;5.93;5.20;;;21.90;32.70;;;;;;5050340;28;20546;-40
2021/04/30 06:08:46;;;;;;;5.60;5.03;;;22.30;33.10;;;;;;5048821;28;20220;-38
2021/04/30 06:11:12;;;;;;;5.43;4.03;;;22.60;33.80;;;;;;5053384;28;20225;-41
2021/04/30 06:13:38;;;;;;;3.40;3.10;;;22.70;34.00;;;;;;5050833;28;20206;-37
2021/04/30 06:16:04;;;;;;;5.23;3.20;;;22.80;33.30;;;;;;5049418;28;20205;-37
2021/04/30 06:18:30;;;;;;;3.90;2.97;;;22.90;33.30;;;;;;5049186;28;20212;-49
2021/04/30 06:20:56;;;;;;;2.80;2.53;;;22.90;32.90;;;;;;5055074;28;20593;-39
2021/04/30 06:23:22;;;;;;;4.47;2.53;;;23.00;33.40;;;;;;5038678;28;20260;-46
2021/04/30 06:25:48;;;;;;;3.75;2.80;;;23.10;32.40;;;;;;5044004;28;20257;-41
2021/04/30 06:28:14;;;;;;;6.10;3.03;;;23.10;33.40;;;;;;5041230;28;20205;-56
2021/04/30 06:30:39;;;;;;;2.42;2.20;;;23.30;33.70;;;;;;5047339;28;20233;-48
2021/04/30 06:33:05;;;;;;;3.75;2.38;;;23.30;35.00;;;;;;5047658;28;20501;-35
2021/04/30 06:35:31;;;;;;;2.72;2.17;;;23.40;33.80;;;;;;5046394;28;20213;-36
2021/04/30 06:37:57;;;;;;;4.22;2.25;;;23.40;33.40;;;;;;5047195;28;20205;-41
2021/04/30 06:40:23;;;;;;;5.35;2.38;;;23.30;33.30;;;;;;5041996;28;20287;-36
2021/04/30 06:42:49;;;;;;;5.25;2.10;;;23.30;33.40;;;;;;5048887;28;20216;-50
2021/04/30 06:45:15;;;;;;;5.30;2.40;;;23.30;33.60;;;;;;5043639;28;20197;-39
2021/04/30 06:47:41;;;;;;;2.70;2.38;;;23.30;33.30;;;;;;5042553;28;20194;-33
2021/04/30 06:50:07;;;;;;;2.58;2.13;;;23.30;34.60;;;;;;5048017;28;20680;-40
2021/04/30 06:52:33;;;;;;;5.65;2.65;;;23.30;33.70;;;;;;5046682;28;20313;-41
2021/04/30 06:54:59;;;;;;;4.20;2.33;;;23.30;34.00;;;;;;5048431;28;20536;-41
2021/04/30 06:57:25;;;;;;;2.40;2.20;;;23.30;34.20;;;;;;5047428;28;20201;-41
2021/04/30 06:59:51;;;;;;;3.30;2.28;;;23.30;34.30;;;;;;5048114;28;20271;-34
2021/04/30 07:02:17;;;;;;;3.05;1.90;;;23.40;34.50;;;;;;5041733;28;20218;-44
2021/04/30 07:04:43;;;;;;;2.65;2.20;;;23.30;34.40;;;;;;5048905;28;20505;-35
2021/04/30 07:07:09;;;;;;;2.33;2.00;;;23.30;34.30;;;;;;5048929;28;20213;-42
2021/04/30 07:09:35;;;;;;;2.60;2.05;;;23.30;34.70;;;;;;5047939;28;20218;-42
2021/04/30 07:12:02;;;;;;;2.17;1.90;;;23.40;35.30;;;;;;5041140;28;20259;-43
2021/04/30 07:14:28;;;;;;;2.20;1.98;;;23.40;35.30;;;;;;5038062;28;20324;-45
2021/04/30 07:16:54;;;;;;;4.78;2.88;;;23.30;35.50;;;;;;5051977;28;20202;-34
2021/04/30 07:19:20;;;;;;;2.28;2.08;;;23.40;35.30;;;;;;5051784;28;20198;-46
2021/04/30 07:21:46;;;;;;;2.40;1.95;;;23.40;35.70;;;;;;5047682;28;20198;-34
2021/04/30 07:24:12;;;;;;;4.10;2.00;;;23.30;35.50;;;;;;5051839;28;20253;-37
2021/04/30 07:26:38;;;;;;;2.63;2.10;;;23.40;35.40;;;;;;5052270;28;20202;-37
2021/04/30 07:29:04;;;;;;;3.50;1.90;;;23.40;35.60;;;;;;5047890;28;20201;-36
2021/04/30 07:31:30;;;;;;;2.53;1.80;;;23.40;35.50;;;;;;5046120;28;20225;-40
2021/04/30 07:33:56;;;;;;;4.95;2.17;;;23.40;35.30;;;;;;5052233;28;20604;-46
2021/04/30 07:36:22;;;;;;;2.28;2.08;;;23.40;34.20;;;;;;5052780;28;20202;-46
2021/04/30 07:38:48;;;;;;;2.95;2.15;;;23.40;35.10;;;;;;5045701;28;20198;-45
2021/04/30 07:41:14;;;;;;;3.20;2.55;;;23.50;34.00;;;;;;5045550;28;20252;-37
2021/04/30 07:43:40;;;;;;;3.67;1.98;;;23.50;35.60;;;;;;5043207;28;20205;-45
2021/04/30 07:46:06;;;;;;;3.05;1.95;;;23.50;34.50;;;;;;5038119;28;20729;-41
2021/04/30 07:48:32;;;;;;;2.80;2.08;;;23.60;35.70;;;;;;5049359;28;20248;-45
2021/04/30 07:50:59;;;;;;;3.90;2.17;;;23.60;34.80;;;;;;5050022;28;20233;-50
2021/04/30 07:53:25;;;;;;;2.40;2.10;;;23.60;34.70;;;;;;5050260;28;20293;-45
2021/04/30 07:55:51;;;;;;;2.55;2.28;;;23.60;34.60;;;;;;5048400;28;20206;-49
2021/04/30 07:58:19;;;;;;;3.03;2.00;;;23.50;34.20;;;;;;5052157;28;20552;-41
2021/04/30 08:00:45;;;;;;;4.20;2.08;;;23.60;35.20;;;;;;5047713;28;20272;-40
2021/04/30 08:03:11;;;;;;;4.88;1.85;;;23.60;35.10;;;;;;5051348;28;20293;-43
2021/04/30 08:05:37;;;;;;;6.60;2.75;;;23.60;33.60;;;;;;5050338;28;20662;-41
2021/04/30 08:08:04;;;;;;;5.05;2.25;;;23.60;34.40;;;;;;5047806;28;20206;-40
2021/04/30 08:10:31;;;;;;;7.88;2.47;;;23.60;34.70;;;;;;5047382;28;20224;-48
2021/04/30 08:12:57;;;;;;;7.82;3.42;;;23.60;34.20;;;;;;5048134;28;20239;-36
2021/04/30 08:15:23;;;;;;;5.47;2.20;;;23.60;33.80;;;;;;5043932;28;20256;-37
2021/04/30 08:17:49;;;;;;;7.93;2.83;;;23.60;34.00;;;;;;5050663;28;20601;-41
2021/04/30 08:20:15;;;;;;;3.83;2.10;;;23.60;34.10;;;;;;5052105;28;20283;-40
2021/04/30 08:22:41;;;;;;;8.13;2.42;;;23.60;33.90;;;;;;5053098;28;20198;-47
2021/04/30 08:25:07;;;;;;;5.65;2.70;;;23.60;33.60;;;;;;5052531;28;20213;-51
2021/04/30 08:27:33;;;;;;;5.32;2.30;;;23.60;33.80;;;;;;5052254;28;20202;-43
2021/04/30 08:29:59;;;;;;;6.75;2.05;;;23.60;34.10;;;;;;5051669;28;20587;-52
2021/04/30 08:32:25;;;;;;;3.35;2.30;;;23.50;34.00;;;;;;5052119;28;20283;-35
2021/04/30 08:34:51;;;;;;;5.00;2.33;;;23.60;33.90;;;;;;5069392;28;20197;-48
2021/04/30 08:37:17;;;;;;;4.20;2.40;;;23.60;34.10;;;;;;5052169;28;20216;-42
2021/04/30 08:39:43;;;;;;;3.55;2.03;;;23.50;33.80;;;;;;5052030;28;20242;-52
2021/04/30 08:42:09;;;;;;;6.68;2.35;;;23.60;33.80;;;;;;5052200;28;20224;-39
2021/04/30 08:44:35;;;;;;;6.68;2.40;;;23.60;33.70;;;;;;5052608;28;20190;-47
2021/04/30 08:47:01;;;;;;;3.28;2.13;;;23.60;33.40;;;;;;5051839;28;20201;-49
2021/04/30 08:49:27;;;;;;;3.22;2.15;;;23.50;33.50;;;;;;5051816;28;20283;-38
2021/04/30 08:51:53;;;;;;;4.20;2.47;;;23.60;33.30;;;;;;5052135;28;20643;-40
2021/04/30 08:54:19;;;;;;;3.17;2.25;;;23.60;33.10;;;;;;5047956;28;20198;-34
2021/04/30 08:56:48;;;;;;;6.25;2.40;;;23.60;32.90;;;;;;5050394;28;20623;-44
2021/04/30 08:59:14;;;;;;;4.55;2.33;;;23.60;32.80;;;;;;5052236;28;20221;-51
2021/04/30 09:01:40;;;;;;;4.90;2.40;;;23.60;32.80;;;;;;5052334;28;20255;-42
2021/04/30 09:04:06;;;;;;;2.60;2.10;;;23.60;32.80;;;;;;5051764;28;20570;-43
2021/04/30 09:06:32;;;;;;;3.30;1.80;;;23.60;32.40;;;;;;5057860;28;20197;-42
2021/04/30 09:08:58;;;;;;;2.67;1.75;;;23.60;32.40;;;;;;5050931;28;20727;-48
2021/04/30 09:11:24;;;;;;;4.47;2.15;;;23.60;32.40;;;;;;5051924;28;20221;-43
2021/04/30 09:13:50;;;;;;;2.88;1.98;;;23.60;32.40;;;;;;5051446;28;20541;-48
2021/04/30 09:16:16;;;;;;;5.28;2.28;;;23.60;32.30;;;;;;5058746;28;20197;-39
2021/04/30 09:18:42;;;;;;;5.13;2.15;;;23.60;32.60;;;;;;5059162;28;20198;-39
2021/04/30 09:21:08;;;;;;;4.32;1.90;;;23.60;32.50;;;;;;5051298;28;20311;-40
2021/04/30 09:23:34;;;;;;;2.20;2.00;;;23.60;32.80;;;;;;5051617;28;20201;-38
2021/04/30 09:26:00;;;;;;;4.38;2.22;;;23.60;32.60;;;;;;5051515;28;20205;-40
2021/04/30 09:28:26;;;;;;;2.25;2.05;;;23.60;32.50;;;;;;5050652;28;20658;-46
2021/04/30 09:30:52;;;;;;;2.83;1.92;;;23.60;32.70;;;;;;5030390;28;20270;-40
2021/04/30 09:33:18;;;;;;;3.08;2.30;;;23.60;32.40;;;;;;5032406;28;20213;-38
2021/04/30 09:35:44;;;;;;;6.93;2.38;;;23.60;32.60;;;;;;5042335;28;20208;-34
2021/04/30 09:38:10;;;;;;;3.42;2.17;;;23.60;33.80;;;;;;5046083;28;20210;-45
2021/04/30 09:40:36;;;;;;;3.47;1.80;;;23.60;33.30;;;;;;5050169;28;20591;-43
2021/04/30 09:43:02;;;;;;;1.92;1.70;;;23.70;32.90;;;;;;5045711;28;20255;-38
2021/04/30 09:45:28;;;;;;;3.97;2.42;;;23.60;32.80;;;;;;5048413;28;20562;-34
2021/04/30 09:47:58;;;;;;;3.13;1.90;;;23.70;32.90;;;;;;5043757;28;20206;-34
2021/04/30 09:50:24;;;;;;;4.30;2.08;;;23.70;33.00;;;;;;5048896;28;20272;-34
2021/04/30 09:52:50;;;;;;;2.85;2.05;;;23.70;33.20;;;;;;5047968;28;20226;-34
2021/04/30 09:55:16;;;;;;;4.57;1.92;;;23.70;33.30;;;;;;5046088;28;20213;-37
2021/04/30 09:57:42;;;;;;;2.85;2.00;;;23.70;32.90;;;;;;5039574;28;20209;-34
2021/04/30 10:00:10;;;;;;;2.03;1.80;;;23.60;32.30;;;;;;5038829;28;20302;-34
2021/04/30 10:02:36;;;;;;;3.35;2.08;;;23.70;32.10;;;;;;5038013;28;20214;-38
2021/04/30 10:05:02;;;;;;;3.90;2.60;;;23.60;32.00;;;;;;5050306;28;20301;-37
2021/04/30 10:07:28;;;;;;;3.50;2.17;;;23.60;32.00;;;;;;5049407;28;20237;-34
2021/04/30 10:09:54;;;;;;;4.45;2.13;;;23.60;31.90;;;;;;5050598;28;20225;-45
2021/04/30 10:12:20;;;;;;;5.32;2.53;;;23.60;32.00;;;;;;5046647;28;20635;-42
2021/04/30 10:14:46;;;;;;;2.95;2.22;;;23.60;31.80;;;;;;5049875;28;20202;-35
2021/04/30 10:17:12;;;;;;;3.85;2.20;;;23.60;32.00;;;;;;5048890;28;20256;-45
2021/04/30 10:19:38;;;;;;;2.20;2.00;;;23.60;31.90;;;;;;5044573;28;20232;-34
2021/04/30 10:22:04;;;;;;;2.78;2.20;;;23.60;31.60;;;;;;5047305;28;20205;-35
2021/04/30 10:24:30;;;;;;;2.28;1.90;;;23.70;31.50;;;;;;5042355;28;20229;-35
2021/04/30 10:26:57;;;;;;;2.85;1.90;;;23.70;31.50;;;;;;5046562;28;20206;-35
2021/04/30 10:29:23;;;;;;;2.92;1.88;;;23.60;31.20;;;;;;5046005;28;20217;-48
2021/04/30 10:31:49;;;;;;;2.22;2.00;;;23.70;31.30;;;;;;5048229;28;20232;-40
2021/04/30 10:34:15;;;;;;;2.40;2.00;;;23.70;31.30;;;;;;5050269;28;20194;-47
2021/04/30 10:36:41;;;;;;;1.95;1.83;;;23.60;31.20;;;;;;5049495;28;20304;-35
2021/04/30 10:39:07;;;;;;;2.30;2.10;;;23.60;31.20;;;;;;5047677;28;20710;-45
2021/04/30 10:41:33;;;;;;;2.55;1.98;;;23.60;31.80;;;;;;5047285;28;20607;-34
2021/04/30 10:43:59;;;;;;;3.72;2.20;;;23.70;32.20;;;;;;5049451;28;20220;-43
2021/04/30 10:46:25;;;;;;;2.78;1.98;;;23.70;32.40;;;;;;5052746;28;20209;-34
2021/04/30 10:48:51;;;;;;;2.65;1.88;;;23.70;33.00;;;;;;5042247;28;20612;-36
2021/04/30 10:51:17;;;;;;;2.00;1.80;;;23.80;33.00;;;;;;5052116;28;20276;-43
2021/04/30 10:53:45;;;;;;;2.35;1.75;;;23.80;33.30;;;;;;5055858;28;20561;-39
2021/04/30 10:56:11;;;;;;;4.05;1.90;;;23.80;33.10;;;;;;5058608;28;20209;-39
2021/04/30 10:58:37;;;;;;;2.38;1.67;;;23.80;33.60;;;;;;5051349;28;20221;-37
2021/04/30 11:01:03;;;;;;;2.15;1.70;;;23.80;34.20;;;;;;5051131;28;20215;-36
2021/04/30 11:03:29;;;;;;;2.75;1.80;;;23.70;33.50;;;;;;5048417;28;20214;-36
2021/04/30 11:05:55;;;;;;;2.70;2.15;;;23.80;33.40;;;;;;5055523;28;20575;-35
2021/04/30 11:08:21;;;;;;;3.58;1.80;;;23.80;33.40;;;;;;5050826;28;20225;-56
2021/04/30 11:10:47;;;;;;;2.60;1.85;;;23.80;33.30;;;;;;5049892;28;20304;-44
2021/04/30 11:13:15;;;;;;;3.75;1.50;;;23.80;33.20;;;;;;5052672;28;20255;-38
2021/04/30 11:15:41;;;;;;;2.00;1.80;;;23.80;33.40;;;;;;5055212;28;20213;-46
2021/04/30 11:18:07;;;;;;;1.63;1.52;;;23.80;33.50;;;;;;5055034;28;20201;-35
2021/04/30 11:20:33;;;;;;;3.78;2.03;;;23.80;33.60;;;;;;5047120;28;20260;-34
2021/04/30 11:22:59;;;;;;;3.30;2.05;;;23.80;33.60;;;;;;5053549;28;20205;-42
2021/04/30 11:25:25;;;;;;;5.68;3.90;;;23.80;33.70;;;;;;5059987;28;20216;-34
2021/04/30 11:27:51;;;;;;;6.40;4.85;;;23.80;33.90;;;;;;5044862;28;20202;-40
2021/04/30 11:30:17;;;;;;;8.35;5.93;;;23.80;33.80;;;;;;5051673;28;20218;-39
2021/04/30 11:32:43;;;;;;;6.35;5.35;;;23.80;34.20;;;;;;5048398;28;20225;-36
2021/04/30 11:35:09;;;;;;;6.43;4.22;;;23.80;34.20;;;;;;5054294;28;20198;-42
2021/04/30 11:37:35;;;;;;;8.43;5.82;;;23.90;34.10;;;;;;5051783;28;20592;-47
2021/04/30 11:40:01;;;;;;;7.95;5.60;;;23.90;34.10;;;;;;5053077;28;20230;-42
2021/04/30 11:42:27;;;;;;;7.90;5.80;;;23.90;34.20;;;;;;5053712;28;20609;-46
2021/04/30 11:44:53;;;;;;;6.82;6.10;;;23.90;34.10;;;;;;5052875;28;20202;-42
2021/04/30 11:47:19;;;;;;;9.35;6.53;;;23.90;34.10;;;;;;5061997;28;20198;-42
2021/04/30 11:49:46;;;;;;;9.60;6.40;;;23.90;34.10;;;;;;5052412;28;20725;-46
2021/04/30 11:52:12;;;;;;;9.25;6.90;;;23.90;34.20;;;;;;5065885;28;20229;-44
2021/04/30 11:54:38;;;;;;;10.48;7.40;;;23.90;34.20;;;;;;5067680;28;20552;-44
2021/04/30 11:57:05;;;;;;;9.50;6.95;;;23.90;34.30;;;;;;5052267;28;20253;-46
2021/04/30 11:59:31;;;;;;;10.90;7.47;;;23.90;34.30;;;;;;5052301;28;20812;-43
2021/04/30 12:01:57;;;;;;;9.45;6.78;;;23.90;34.30;;;;;;5052994;28;20222;-49
2021/04/30 12:04:23;;;;;;;10.82;6.68;;;23.90;34.40;;;;;;5064320;28;20220;-38
2021/04/30 12:06:49;;;;;;;12.30;7.38;;;23.90;34.50;;;;;;5054913;28;20198;-39
2021/04/30 12:09:15;;;;;;;9.38;6.63;;;23.90;34.70;;;;;;5059056;28;20280;-38
2021/04/30 12:11:41;;;;;;;10.82;6.63;;;23.80;34.30;;;;;;5052767;28;20236;-50
2021/04/30 12:14:07;;;;;;;7.63;6.32;;;23.90;34.30;;;;;;5052406;28;20571;-42
2021/04/30 12:16:33;;;;;;;8.88;6.80;;;23.80;34.20;;;;;;5052142;28;20248;-38
2021/04/30 12:18:59;;;;;;;7.60;5.88;;;23.80;34.40;;;;;;5049235;28;20221;-43
2021/04/30 12:21:25;;;;;;;6.63;5.90;;;23.80;34.20;;;;;;5047362;28;20213;-36
2021/04/30 12:23:51;;;;;;;9.07;6.30;;;23.80;34.20;;;;;;5052475;28;20194;-48
2021/04/30 12:26:17;;;;;;;8.32;5.75;;;23.80;34.10;;;;;;5050237;28;20202;-42
2021/04/30 12:28:43;;;;;;;8.90;6.15;;;23.80;34.10;;;;;;5048430;28;20299;-45
2021/04/30 12:31:09;;;;;;;7.95;5.80;;;23.80;34.10;;;;;;5050995;28;20690;-40
2021/04/30 12:33:35;;;;;;;7.47;5.68;;;23.80;34.20;;;;;;5069914;28;20227;-38
2021/04/30 12:36:01;;;;;;;8.05;5.85;;;23.80;34.30;;;;;;5051939;28;20209;-34
2021/04/30 12:38:27;;;;;;;8.40;5.95;;;23.80;34.20;;;;;;5052197;28;20591;-35